sensor_id;sensor_type;location;lat;lon;timestamp;P1;durP1;ratioP1;P2;durP2;ratioP2
79454;SDS011;68900;52.134;5.420;2023-05-07T00:01:10;8.43;;;4.75;;
79454;SDS011;68900;52.134;5.420;2023-05-07T00:03:37;9.02;;;4.90;;
79454;SDS011;68900;52.134;5.420;2023-05-07T00:06:13;7.10;;;4.07;;
79454;SDS011;68900;52.134;5.420;2023-05-07T00:08:40;12.27;;;4.90;;
79454;SDS011;68900;52.134;5.420;2023-05-07T00:11:06;8.95;;;4.80;;
79454;SDS011;68900;52.134;5.420;2023-05-07T00:13:33;10.93;;;5.10;;
79454;SDS011;68900;52.134;5.420;2023-05-07T00:16:02;7.30;;;4.40;;
79454;SDS011;68900;52.134;5.420;2023-05-07T00:18:29;10.13;;;4.65;;
79454;SDS011;68900;52.134;5.420;2023-05-07T00:20:55;8.13;;;4.90;;
79454;SDS011;68900;52.134;5.420;2023-05-07T00:23:24;9.50;;;5.03;;
79454;SDS011;68900;52.134;5.420;2023-05-07T00:25:51;7.35;;;4.53;;
79454;SDS011;68900;52.134;5.420;2023-05-07T00:28:17;8.00;;;3.85;;
79454;SDS011;68900;52.134;5.420;2023-05-07T00:30:43;7.15;;;4.93;;
79454;SDS011;68900;52.134;5.420;2023-05-07T00:33:10;7.65;;;4.85;;
79454;SDS011;68900;52.134;5.420;2023-05-07T00:35:36;9.10;;;4.65;;
79454;SDS011;68900;52.134;5.420;2023-05-07T00:38:03;6.68;;;4.55;;
79454;SDS011;68900;52.134;5.420;2023-05-07T00:40:29;8.88;;;5.03;;
79454;SDS011;68900;52.134;5.420;2023-05-07T00:42:56;8.43;;;4.85;;
79454;SDS011;68900;52.134;5.420;2023-05-07T00:45:27;9.15;;;5.07;;
79454;SDS011;68900;52.134;5.420;2023-05-07T00:47:58;7.65;;;5.82;;
79454;SDS011;68900;52.134;5.420;2023-05-07T00:50:26;9.25;;;5.05;;
79454;SDS011;68900;52.134;5.420;2023-05-07T00:52:53;7.10;;;4.40;;
79454;SDS011;68900;52.134;5.420;2023-05-07T00:55:21;8.07;;;4.55;;
79454;SDS011;68900;52.134;5.420;2023-05-07T00:57:49;8.70;;;4.90;;
79454;SDS011;68900;52.134;5.420;2023-05-07T01:00:16;7.82;;;5.00;;
79454;SDS011;68900;52.134;5.420;2023-05-07T01:02:44;7.45;;;5.05;;
79454;SDS011;68900;52.134;5.420;2023-05-07T01:05:11;7.88;;;5.05;;
79454;SDS011;68900;52.134;5.420;2023-05-07T01:07:40;11.00;;;5.15;;
79454;SDS011;68900;52.134;5.420;2023-05-07T01:10:08;8.60;;;4.70;;
79454;SDS011;68900;52.134;5.420;2023-05-07T01:12:36;7.38;;;4.88;;
79454;SDS011;68900;52.134;5.420;2023-05-07T01:15:03;9.75;;;5.18;;
79454;SDS011;68900;52.134;5.420;2023-05-07T01:17:35;8.68;;;5.07;;
79454;SDS011;68900;52.134;5.420;2023-05-07T01:20:06;8.98;;;4.72;;
79454;SDS011;68900;52.134;5.420;2023-05-07T01:22:35;7.82;;;4.32;;
79454;SDS011;68900;52.134;5.420;2023-05-07T01:25:04;9.77;;;4.90;;
79454;SDS011;68900;52.134;5.420;2023-05-07T01:27:33;7.45;;;4.70;;
79454;SDS011;68900;52.134;5.420;2023-05-07T01:30:01;9.07;;;5.95;;
79454;SDS011;68900;52.134;5.420;2023-05-07T01:35:07;7.13;;;4.90;;
79454;SDS011;68900;52.134;5.420;2023-05-07T01:37:37;9.75;;;4.93;;
79454;SDS011;68900;52.134;5.420;2023-05-07T01:40:05;7.80;;;4.93;;
79454;SDS011;68900;52.134;5.420;2023-05-07T01:42:33;9.05;;;5.82;;
79454;SDS011;68900;52.134;5.420;2023-05-07T01:44:59;8.80;;;5.55;;
79454;SDS011;68900;52.134;5.420;2023-05-07T01:47:26;8.20;;;5.00;;
79454;SDS011;68900;52.134;5.420;2023-05-07T01:49:53;8.02;;;5.03;;
79454;SDS011;68900;52.134;5.420;2023-05-07T01:52:20;9.55;;;5.13;;
79454;SDS011;68900;52.134;5.420;2023-05-07T01:54:47;8.35;;;5.30;;
79454;SDS011;68900;52.134;5.420;2023-05-07T01:57:13;7.22;;;4.85;;
79454;SDS011;68900;52.134;5.420;2023-05-07T01:59:39;9.75;;;5.38;;
79454;SDS011;68900;52.134;5.420;2023-05-07T02:02:06;9.02;;;4.93;;
79454;SDS011;68900;52.134;5.420;2023-05-07T02:04:33;8.77;;;5.43;;
79454;SDS011;68900;52.134;5.420;2023-05-07T02:06:59;9.35;;;5.00;;
79454;SDS011;68900;52.134;5.420;2023-05-07T02:09:26;9.73;;;5.38;;
79454;SDS011;68900;52.134;5.420;2023-05-07T02:11:52;11.57;;;5.13;;
79454;SDS011;68900;52.134;5.420;2023-05-07T02:14:19;7.47;;;5.00;;
79454;SDS011;68900;52.134;5.420;2023-05-07T02:16:46;9.52;;;5.30;;
79454;SDS011;68900;52.134;5.420;2023-05-07T02:19:13;8.35;;;5.35;;
79454;SDS011;68900;52.134;5.420;2023-05-07T02:21:39;8.02;;;5.18;;
79454;SDS011;68900;52.134;5.420;2023-05-07T02:24:06;9.23;;;5.30;;
79454;SDS011;68900;52.134;5.420;2023-05-07T02:26:35;8.25;;;5.28;;
79454;SDS011;68900;52.134;5.420;2023-05-07T02:29:01;9.02;;;5.28;;
79454;SDS011;68900;52.134;5.420;2023-05-07T02:31:28;8.65;;;5.35;;
79454;SDS011;68900;52.134;5.420;2023-05-07T02:33:55;7.45;;;5.30;;
79454;SDS011;68900;52.134;5.420;2023-05-07T02:36:21;10.20;;;6.78;;
79454;SDS011;68900;52.134;5.420;2023-05-07T02:38:48;8.45;;;5.40;;
79454;SDS011;68900;52.134;5.420;2023-05-07T02:41:14;11.23;;;5.75;;
79454;SDS011;68900;52.134;5.420;2023-05-07T02:43:44;9.10;;;5.03;;
79454;SDS011;68900;52.134;5.420;2023-05-07T02:46:10;9.55;;;5.72;;
79454;SDS011;68900;52.134;5.420;2023-05-07T02:48:37;11.63;;;6.18;;
79454;SDS011;68900;52.134;5.420;2023-05-07T02:51:03;8.15;;;5.40;;
79454;SDS011;68900;52.134;5.420;2023-05-07T02:53:31;8.52;;;5.78;;
79454;SDS011;68900;52.134;5.420;2023-05-07T02:55:58;9.90;;;5.50;;
79454;SDS011;68900;52.134;5.420;2023-05-07T02:58:26;8.77;;;5.43;;
79454;SDS011;68900;52.134;5.420;2023-05-07T03:00:52;10.38;;;6.03;;
79454;SDS011;68900;52.134;5.420;2023-05-07T03:03:20;9.80;;;5.20;;
79454;SDS011;68900;52.134;5.420;2023-05-07T03:05:47;5.03;;;2.83;;
79454;SDS011;68900;52.134;5.420;2023-05-07T03:08:13;11.65;;;5.72;;
79454;SDS011;68900;52.134;5.420;2023-05-07T03:10:40;8.80;;;6.00;;
79454;SDS011;68900;52.134;5.420;2023-05-07T03:13:09;10.77;;;6.07;;
79454;SDS011;68900;52.134;5.420;2023-05-07T03:15:36;10.50;;;5.72;;
79454;SDS011;68900;52.134;5.420;2023-05-07T03:18:02;11.00;;;6.68;;
79454;SDS011;68900;52.134;5.420;2023-05-07T03:20:29;11.25;;;6.45;;
79454;SDS011;68900;52.134;5.420;2023-05-07T03:22:56;9.70;;;5.85;;
79454;SDS011;68900;52.134;5.420;2023-05-07T03:25:22;10.95;;;6.32;;
79454;SDS011;68900;52.134;5.420;2023-05-07T03:27:49;12.02;;;6.18;;
79454;SDS011;68900;52.134;5.420;2023-05-07T03:30:15;9.82;;;6.40;;
79454;SDS011;68900;52.134;5.420;2023-05-07T03:32:42;9.15;;;5.72;;
79454;SDS011;68900;52.134;5.420;2023-05-07T03:35:08;11.02;;;6.25;;
79454;SDS011;68900;52.134;5.420;2023-05-07T03:37:35;11.35;;;6.25;;
79454;SDS011;68900;52.134;5.420;2023-05-07T03:40:01;10.73;;;6.38;;
79454;SDS011;68900;52.134;5.420;2023-05-07T03:42:28;9.40;;;6.45;;
79454;SDS011;68900;52.134;5.420;2023-05-07T03:44:54;10.88;;;6.43;;
79454;SDS011;68900;52.134;5.420;2023-05-07T03:47:21;11.50;;;6.72;;
79454;SDS011;68900;52.134;5.420;2023-05-07T03:49:47;11.30;;;6.20;;
79454;SDS011;68900;52.134;5.420;2023-05-07T03:52:15;11.90;;;6.47;;
79454;SDS011;68900;52.134;5.420;2023-05-07T03:54:41;8.90;;;5.97;;
79454;SDS011;68900;52.134;5.420;2023-05-07T03:57:08;10.68;;;6.30;;
79454;SDS011;68900;52.134;5.420;2023-05-07T03:59:34;9.68;;;6.07;;
79454;SDS011;68900;52.134;5.420;2023-05-07T04:02:01;11.48;;;6.40;;
79454;SDS011;68900;52.134;5.420;2023-05-07T04:04:30;10.63;;;6.45;;
79454;SDS011;68900;52.134;5.420;2023-05-07T04:06:58;11.43;;;6.72;;
79454;SDS011;68900;52.134;5.420;2023-05-07T04:09:28;9.77;;;6.43;;
79454;SDS011;68900;52.134;5.420;2023-05-07T04:11:54;12.20;;;6.40;;
79454;SDS011;68900;52.134;5.420;2023-05-07T04:14:23;12.18;;;6.70;;
79454;SDS011;68900;52.134;5.420;2023-05-07T04:16:49;10.25;;;6.68;;
79454;SDS011;68900;52.134;5.420;2023-05-07T04:19:16;11.05;;;6.70;;
79454;SDS011;68900;52.134;5.420;2023-05-07T04:21:43;10.38;;;6.65;;
79454;SDS011;68900;52.134;5.420;2023-05-07T04:24:09;10.93;;;6.65;;
79454;SDS011;68900;52.134;5.420;2023-05-07T04:26:35;10.93;;;6.90;;
79454;SDS011;68900;52.134;5.420;2023-05-07T04:29:04;10.50;;;6.60;;
79454;SDS011;68900;52.134;5.420;2023-05-07T04:31:31;11.88;;;6.95;;
79454;SDS011;68900;52.134;5.420;2023-05-07T04:33:58;11.65;;;6.72;;
79454;SDS011;68900;52.134;5.420;2023-05-07T04:36:24;12.50;;;7.07;;
79454;SDS011;68900;52.134;5.420;2023-05-07T04:38:54;10.55;;;6.80;;
79454;SDS011;68900;52.134;5.420;2023-05-07T04:41:20;15.13;;;7.35;;
79454;SDS011;68900;52.134;5.420;2023-05-07T04:43:47;11.95;;;7.57;;
79454;SDS011;68900;52.134;5.420;2023-05-07T04:46:13;11.50;;;7.15;;
79454;SDS011;68900;52.134;5.420;2023-05-07T04:48:40;11.43;;;7.07;;
79454;SDS011;68900;52.134;5.420;2023-05-07T04:51:09;10.65;;;7.22;;
79454;SDS011;68900;52.134;5.420;2023-05-07T04:53:36;12.07;;;7.50;;
79454;SDS011;68900;52.134;5.420;2023-05-07T04:56:03;12.45;;;7.50;;
79454;SDS011;68900;52.134;5.420;2023-05-07T04:58:30;12.73;;;7.32;;
79454;SDS011;68900;52.134;5.420;2023-05-07T05:00:58;11.80;;;6.95;;
79454;SDS011;68900;52.134;5.420;2023-05-07T05:03:25;11.20;;;6.95;;
79454;SDS011;68900;52.134;5.420;2023-05-07T05:05:51;17.52;;;8.25;;
79454;SDS011;68900;52.134;5.420;2023-05-07T05:08:19;17.08;;;7.85;;
79454;SDS011;68900;52.134;5.420;2023-05-07T05:10:45;12.23;;;7.95;;
79454;SDS011;68900;52.134;5.420;2023-05-07T05:13:14;11.15;;;7.38;;
79454;SDS011;68900;52.134;5.420;2023-05-07T05:15:41;11.27;;;6.75;;
79454;SDS011;68900;52.134;5.420;2023-05-07T05:18:07;12.65;;;7.60;;
79454;SDS011;68900;52.134;5.420;2023-05-07T05:20:34;13.88;;;8.02;;
79454;SDS011;68900;52.134;5.420;2023-05-07T05:23:00;13.38;;;7.07;;
79454;SDS011;68900;52.134;5.420;2023-05-07T05:25:27;12.80;;;7.75;;
79454;SDS011;68900;52.134;5.420;2023-05-07T05:27:54;12.25;;;7.95;;
79454;SDS011;68900;52.134;5.420;2023-05-07T05:30:20;11.88;;;7.43;;
79454;SDS011;68900;52.134;5.420;2023-05-07T05:32:48;13.27;;;8.52;;
79454;SDS011;68900;52.134;5.420;2023-05-07T05:35:14;11.52;;;7.72;;
79454;SDS011;68900;52.134;5.420;2023-05-07T05:37:41;14.00;;;8.80;;
79454;SDS011;68900;52.134;5.420;2023-05-07T05:40:08;10.70;;;7.00;;
79454;SDS011;68900;52.134;5.420;2023-05-07T05:42:35;10.52;;;6.47;;
79454;SDS011;68900;52.134;5.420;2023-05-07T05:45:01;12.63;;;7.60;;
79454;SDS011;68900;52.134;5.420;2023-05-07T05:47:31;13.50;;;7.93;;
79454;SDS011;68900;52.134;5.420;2023-05-07T05:49:58;11.75;;;7.30;;
79454;SDS011;68900;52.134;5.420;2023-05-07T05:52:24;13.32;;;8.32;;
79454;SDS011;68900;52.134;5.420;2023-05-07T05:54:53;12.52;;;7.47;;
79454;SDS011;68900;52.134;5.420;2023-05-07T05:57:19;13.48;;;8.10;;
79454;SDS011;68900;52.134;5.420;2023-05-07T05:59:46;16.80;;;8.82;;
79454;SDS011;68900;52.134;5.420;2023-05-07T06:02:13;14.88;;;8.65;;
79454;SDS011;68900;52.134;5.420;2023-05-07T06:04:40;14.20;;;9.07;;
79454;SDS011;68900;52.134;5.420;2023-05-07T06:07:06;14.48;;;8.60;;
79454;SDS011;68900;52.134;5.420;2023-05-07T06:09:33;13.43;;;8.07;;
79454;SDS011;68900;52.134;5.420;2023-05-07T06:11:59;12.23;;;8.30;;
79454;SDS011;68900;52.134;5.420;2023-05-07T06:14:26;13.43;;;8.60;;
79454;SDS011;68900;52.134;5.420;2023-05-07T06:16:52;15.38;;;9.60;;
79454;SDS011;68900;52.134;5.420;2023-05-07T06:19:19;14.68;;;9.38;;
79454;SDS011;68900;52.134;5.420;2023-05-07T06:21:49;14.25;;;8.85;;
79454;SDS011;68900;52.134;5.420;2023-05-07T06:24:16;12.48;;;7.80;;
79454;SDS011;68900;52.134;5.420;2023-05-07T06:26:42;14.77;;;9.15;;
79454;SDS011;68900;52.134;5.420;2023-05-07T06:29:09;16.58;;;9.55;;
79454;SDS011;68900;52.134;5.420;2023-05-07T06:31:38;14.18;;;9.40;;
79454;SDS011;68900;52.134;5.420;2023-05-07T06:34:04;14.60;;;9.30;;
79454;SDS011;68900;52.134;5.420;2023-05-07T06:36:31;13.07;;;8.48;;
79454;SDS011;68900;52.134;5.420;2023-05-07T06:38:57;13.75;;;8.88;;
79454;SDS011;68900;52.134;5.420;2023-05-07T06:41:24;14.93;;;8.95;;
79454;SDS011;68900;52.134;5.420;2023-05-07T06:43:51;16.05;;;9.13;;
79454;SDS011;68900;52.134;5.420;2023-05-07T06:46:20;16.50;;;9.75;;
79454;SDS011;68900;52.134;5.420;2023-05-07T06:48:47;15.98;;;9.60;;
79454;SDS011;68900;52.134;5.420;2023-05-07T06:51:13;15.23;;;9.02;;
79454;SDS011;68900;52.134;5.420;2023-05-07T06:53:40;16.35;;;10.63;;
79454;SDS011;68900;52.134;5.420;2023-05-07T06:56:06;13.20;;;9.05;;
79454;SDS011;68900;52.134;5.420;2023-05-07T06:58:33;14.10;;;8.43;;
79454;SDS011;68900;52.134;5.420;2023-05-07T07:00:59;14.75;;;9.32;;
79454;SDS011;68900;52.134;5.420;2023-05-07T07:03:26;16.58;;;9.57;;
79454;SDS011;68900;52.134;5.420;2023-05-07T07:05:52;16.33;;;9.48;;
79454;SDS011;68900;52.134;5.420;2023-05-07T07:08:20;16.80;;;9.77;;
79454;SDS011;68900;52.134;5.420;2023-05-07T07:10:47;15.00;;;10.13;;
79454;SDS011;68900;52.134;5.420;2023-05-07T07:13:14;16.75;;;9.75;;
79454;SDS011;68900;52.134;5.420;2023-05-07T07:15:40;14.38;;;9.93;;
79454;SDS011;68900;52.134;5.420;2023-05-07T07:18:07;16.77;;;10.55;;
79454;SDS011;68900;52.134;5.420;2023-05-07T07:20:33;13.75;;;9.40;;
79454;SDS011;68900;52.134;5.420;2023-05-07T07:23:00;16.85;;;10.73;;
79454;SDS011;68900;52.134;5.420;2023-05-07T07:25:26;17.25;;;9.40;;
79454;SDS011;68900;52.134;5.420;2023-05-07T07:27:56;16.42;;;10.40;;
79454;SDS011;68900;52.134;5.420;2023-05-07T07:30:22;14.23;;;9.68;;
79454;SDS011;68900;52.134;5.420;2023-05-07T07:32:49;16.00;;;10.32;;
79454;SDS011;68900;52.134;5.420;2023-05-07T07:35:15;15.55;;;10.20;;
79454;SDS011;68900;52.134;5.420;2023-05-07T07:37:42;15.85;;;10.02;;
79454;SDS011;68900;52.134;5.420;2023-05-07T07:40:09;14.55;;;10.07;;
79454;SDS011;68900;52.134;5.420;2023-05-07T07:42:36;13.82;;;9.63;;
79454;SDS011;68900;52.134;5.420;2023-05-07T07:45:02;14.73;;;9.98;;
79454;SDS011;68900;52.134;5.420;2023-05-07T07:47:29;14.23;;;9.75;;
79454;SDS011;68900;52.134;5.420;2023-05-07T07:49:56;14.38;;;10.07;;
79454;SDS011;68900;52.134;5.420;2023-05-07T07:52:23;20.10;;;11.88;;
79454;SDS011;68900;52.134;5.420;2023-05-07T07:54:49;15.63;;;10.02;;
79454;SDS011;68900;52.134;5.420;2023-05-07T07:57:15;16.45;;;10.73;;
79454;SDS011;68900;52.134;5.420;2023-05-07T07:59:42;17.38;;;10.60;;
79454;SDS011;68900;52.134;5.420;2023-05-07T08:02:11;14.32;;;9.85;;
79454;SDS011;68900;52.134;5.420;2023-05-07T08:04:38;17.42;;;11.07;;
79454;SDS011;68900;52.134;5.420;2023-05-07T08:07:04;16.50;;;10.75;;
79454;SDS011;68900;52.134;5.420;2023-05-07T08:09:31;16.85;;;10.40;;
79454;SDS011;68900;52.134;5.420;2023-05-07T08:11:58;16.80;;;10.55;;
79454;SDS011;68900;52.134;5.420;2023-05-07T08:14:24;16.70;;;11.13;;
79454;SDS011;68900;52.134;5.420;2023-05-07T08:16:51;17.48;;;11.13;;
79454;SDS011;68900;52.134;5.420;2023-05-07T08:19:18;16.80;;;11.13;;
79454;SDS011;68900;52.134;5.420;2023-05-07T08:21:45;16.30;;;10.95;;
79454;SDS011;68900;52.134;5.420;2023-05-07T08:24:14;18.92;;;10.90;;
79454;SDS011;68900;52.134;5.420;2023-05-07T08:26:41;17.80;;;10.77;;
79454;SDS011;68900;52.134;5.420;2023-05-07T08:29:08;18.98;;;11.50;;
79454;SDS011;68900;52.134;5.420;2023-05-07T08:31:34;19.90;;;12.10;;
79454;SDS011;68900;52.134;5.420;2023-05-07T08:34:00;19.25;;;11.93;;
79454;SDS011;68900;52.134;5.420;2023-05-07T08:36:27;18.25;;;11.48;;
79454;SDS011;68900;52.134;5.420;2023-05-07T08:38:54;18.52;;;11.27;;
79454;SDS011;68900;52.134;5.420;2023-05-07T08:41:21;17.13;;;12.68;;
79454;SDS011;68900;52.134;5.420;2023-05-07T08:43:48;19.73;;;11.95;;
79454;SDS011;68900;52.134;5.420;2023-05-07T08:51:13;16.23;;;10.77;;
79454;SDS011;68900;52.134;5.420;2023-05-07T08:53:42;18.48;;;11.98;;
79454;SDS011;68900;52.134;5.420;2023-05-07T08:56:08;17.55;;;11.30;;
79454;SDS011;68900;52.134;5.420;2023-05-07T08:58:35;21.77;;;12.57;;
79454;SDS011;68900;52.134;5.420;2023-05-07T09:01:03;19.35;;;11.88;;
79454;SDS011;68900;52.134;5.420;2023-05-07T09:03:34;19.90;;;12.88;;
79454;SDS011;68900;52.134;5.420;2023-05-07T09:06:00;19.85;;;12.15;;
79454;SDS011;68900;52.134;5.420;2023-05-07T09:08:27;20.23;;;13.02;;
79454;SDS011;68900;52.134;5.420;2023-05-07T09:10:53;18.67;;;11.73;;
79454;SDS011;68900;52.134;5.420;2023-05-07T09:13:20;18.52;;;13.32;;
79454;SDS011;68900;52.134;5.420;2023-05-07T09:15:48;19.33;;;12.90;;
79454;SDS011;68900;52.134;5.420;2023-05-07T09:18:15;18.33;;;11.93;;
79454;SDS011;68900;52.134;5.420;2023-05-07T09:20:42;22.58;;;13.15;;
79454;SDS011;68900;52.134;5.420;2023-05-07T09:23:08;21.10;;;12.13;;
79454;SDS011;68900;52.134;5.420;2023-05-07T09:25:35;20.75;;;13.05;;
79454;SDS011;68900;52.134;5.420;2023-05-07T09:28:05;18.73;;;11.27;;
79454;SDS011;68900;52.134;5.420;2023-05-07T09:30:33;19.40;;;11.63;;
79454;SDS011;68900;52.134;5.420;2023-05-07T09:33:01;18.10;;;11.70;;
79454;SDS011;68900;52.134;5.420;2023-05-07T09:35:29;16.15;;;11.50;;
79454;SDS011;68900;52.134;5.420;2023-05-07T09:37:57;16.80;;;10.85;;
79454;SDS011;68900;52.134;5.420;2023-05-07T09:40:30;18.08;;;11.73;;
79454;SDS011;68900;52.134;5.420;2023-05-07T09:43:07;16.00;;;10.93;;
79454;SDS011;68900;52.134;5.420;2023-05-07T09:45:35;16.33;;;9.95;;
79454;SDS011;68900;52.134;5.420;2023-05-07T09:48:04;17.13;;;10.85;;
79454;SDS011;68900;52.134;5.420;2023-05-07T09:50:40;15.73;;;9.93;;
79454;SDS011;68900;52.134;5.420;2023-05-07T09:53:14;15.65;;;10.50;;
79454;SDS011;68900;52.134;5.420;2023-05-07T09:58:11;18.20;;;10.68;;
79454;SDS011;68900;52.134;5.420;2023-05-07T10:03:06;15.70;;;10.05;;
79454;SDS011;68900;52.134;5.420;2023-05-07T10:05:33;16.08;;;10.32;;
79454;SDS011;68900;52.134;5.420;2023-05-07T10:08:00;20.38;;;11.02;;
79454;SDS011;68900;52.134;5.420;2023-05-07T10:10:30;19.92;;;11.23;;
79454;SDS011;68900;52.134;5.420;2023-05-07T10:15:25;17.08;;;11.85;;
79454;SDS011;68900;52.134;5.420;2023-05-07T10:17:52;17.63;;;11.25;;
79454;SDS011;68900;52.134;5.420;2023-05-07T10:20:19;15.68;;;10.13;;
79454;SDS011;68900;52.134;5.420;2023-05-07T10:22:47;19.13;;;11.73;;
79454;SDS011;68900;52.134;5.420;2023-05-07T10:25:18;20.38;;;12.63;;
79454;SDS011;68900;52.134;5.420;2023-05-07T10:27:49;17.92;;;11.60;;
79454;SDS011;68900;52.134;5.420;2023-05-07T10:30:24;19.52;;;12.38;;
79454;SDS011;68900;52.134;5.420;2023-05-07T10:33:03;18.02;;;11.07;;
79454;SDS011;68900;52.134;5.420;2023-05-07T10:35:36;19.73;;;11.93;;
79454;SDS011;68900;52.134;5.420;2023-05-07T10:38:06;17.55;;;11.50;;
79454;SDS011;68900;52.134;5.420;2023-05-07T10:40:33;17.17;;;11.60;;
79454;SDS011;68900;52.134;5.420;2023-05-07T10:43:00;18.02;;;11.20;;
79454;SDS011;68900;52.134;5.420;2023-05-07T10:45:29;15.57;;;10.88;;
79454;SDS011;68900;52.134;5.420;2023-05-07T10:48:10;18.25;;;11.35;;
79454;SDS011;68900;52.134;5.420;2023-05-07T10:50:44;17.42;;;10.50;;
79454;SDS011;68900;52.134;5.420;2023-05-07T10:55:41;15.75;;;10.35;;
79454;SDS011;68900;52.134;5.420;2023-05-07T11:00:58;20.15;;;10.77;;
79454;SDS011;68900;52.134;5.420;2023-05-07T11:08:56;16.73;;;9.95;;
79454;SDS011;68900;52.134;5.420;2023-05-07T11:14:14;17.33;;;10.85;;
79454;SDS011;68900;52.134;5.420;2023-05-07T11:17:02;17.67;;;10.57;;
79454;SDS011;68900;52.134;5.420;2023-05-07T11:25:00;17.63;;;11.13;;
79454;SDS011;68900;52.134;5.420;2023-05-07T11:27:32;19.70;;;11.82;;
79454;SDS011;68900;52.134;5.420;2023-05-07T11:29:59;18.80;;;11.35;;
79454;SDS011;68900;52.134;5.420;2023-05-07T11:32:31;18.50;;;11.75;;
79454;SDS011;68900;52.134;5.420;2023-05-07T11:34:59;18.50;;;11.48;;
79454;SDS011;68900;52.134;5.420;2023-05-07T11:37:27;17.98;;;12.10;;
79454;SDS011;68900;52.134;5.420;2023-05-07T11:40:02;18.50;;;11.95;;
79454;SDS011;68900;52.134;5.420;2023-05-07T11:42:37;19.23;;;11.73;;
79454;SDS011;68900;52.134;5.420;2023-05-07T11:45:05;18.65;;;12.38;;
79454;SDS011;68900;52.134;5.420;2023-05-07T11:47:32;21.17;;;13.02;;
79454;SDS011;68900;52.134;5.420;2023-05-07T11:50:06;18.23;;;12.13;;
79454;SDS011;68900;52.134;5.420;2023-05-07T11:52:34;22.10;;;12.88;;
79454;SDS011;68900;52.134;5.420;2023-05-07T11:55:02;19.23;;;12.50;;
79454;SDS011;68900;52.134;5.420;2023-05-07T11:57:30;19.55;;;12.40;;
79454;SDS011;68900;52.134;5.420;2023-05-07T12:00:02;20.75;;;12.95;;
79454;SDS011;68900;52.134;5.420;2023-05-07T12:04:57;17.90;;;12.50;;
79454;SDS011;68900;52.134;5.420;2023-05-07T12:07:26;21.65;;;13.23;;
79454;SDS011;68900;52.134;5.420;2023-05-07T12:09:53;19.58;;;13.43;;
79454;SDS011;68900;52.134;5.420;2023-05-07T12:12:26;19.77;;;12.57;;
79454;SDS011;68900;52.134;5.420;2023-05-07T12:14:53;20.25;;;12.38;;
79454;SDS011;68900;52.134;5.420;2023-05-07T12:17:21;20.10;;;12.70;;
79454;SDS011;68900;52.134;5.420;2023-05-07T12:19:47;18.95;;;12.40;;
79454;SDS011;68900;52.134;5.420;2023-05-07T12:22:14;22.35;;;13.30;;
79454;SDS011;68900;52.134;5.420;2023-05-07T12:24:43;19.90;;;12.27;;
79454;SDS011;68900;52.134;5.420;2023-05-07T12:27:11;18.30;;;12.77;;
79454;SDS011;68900;52.134;5.420;2023-05-07T12:29:38;18.50;;;11.82;;
79454;SDS011;68900;52.134;5.420;2023-05-07T12:32:07;18.60;;;11.57;;
79454;SDS011;68900;52.134;5.420;2023-05-07T12:34:39;17.88;;;11.80;;
79454;SDS011;68900;52.134;5.420;2023-05-07T12:37:11;18.65;;;11.93;;
79454;SDS011;68900;52.134;5.420;2023-05-07T12:39:48;18.13;;;11.68;;
79454;SDS011;68900;52.134;5.420;2023-05-07T12:42:16;16.98;;;11.05;;
79454;SDS011;68900;52.134;5.420;2023-05-07T12:44:46;18.55;;;10.70;;
79454;SDS011;68900;52.134;5.420;2023-05-07T12:47:13;14.68;;;10.48;;
79454;SDS011;68900;52.134;5.420;2023-05-07T12:49:41;16.90;;;10.45;;
79454;SDS011;68900;52.134;5.420;2023-05-07T12:52:07;17.10;;;10.30;;
79454;SDS011;68900;52.134;5.420;2023-05-07T12:54:35;15.23;;;9.88;;
79454;SDS011;68900;52.134;5.420;2023-05-07T12:57:07;15.05;;;9.05;;
79454;SDS011;68900;52.134;5.420;2023-05-07T13:02:16;13.63;;;7.85;;
79454;SDS011;68900;52.134;5.420;2023-05-07T13:04:42;16.83;;;7.00;;
79454;SDS011;68900;52.134;5.420;2023-05-07T13:07:08;11.57;;;6.85;;
79454;SDS011;68900;52.134;5.420;2023-05-07T13:09:35;10.13;;;6.53;;
79454;SDS011;68900;52.134;5.420;2023-05-07T13:12:03;14.35;;;8.20;;
79454;SDS011;68900;52.134;5.420;2023-05-07T13:14:32;10.75;;;7.40;;
79454;SDS011;68900;52.134;5.420;2023-05-07T13:16:59;14.23;;;7.18;;
79454;SDS011;68900;52.134;5.420;2023-05-07T13:19:25;12.80;;;6.80;;
79454;SDS011;68900;52.134;5.420;2023-05-07T13:21:57;13.50;;;7.57;;
79454;SDS011;68900;52.134;5.420;2023-05-07T13:24:24;10.07;;;6.85;;
79454;SDS011;68900;52.134;5.420;2023-05-07T13:26:50;13.70;;;8.20;;
79454;SDS011;68900;52.134;5.420;2023-05-07T13:29:17;13.43;;;8.60;;
79454;SDS011;68900;52.134;5.420;2023-05-07T13:31:43;14.30;;;7.40;;
79454;SDS011;68900;52.134;5.420;2023-05-07T13:34:14;15.40;;;8.60;;
79454;SDS011;68900;52.134;5.420;2023-05-07T13:36:41;14.90;;;8.90;;
79454;SDS011;68900;52.134;5.420;2023-05-07T13:39:08;14.27;;;9.50;;
79454;SDS011;68900;52.134;5.420;2023-05-07T13:41:35;14.85;;;9.85;;
79454;SDS011;68900;52.134;5.420;2023-05-07T13:44:01;14.75;;;8.93;;
79454;SDS011;68900;52.134;5.420;2023-05-07T13:46:28;15.60;;;9.80;;
79454;SDS011;68900;52.134;5.420;2023-05-07T13:48:56;17.10;;;9.77;;
79454;SDS011;68900;52.134;5.420;2023-05-07T13:51:22;14.02;;;8.35;;
79454;SDS011;68900;52.134;5.420;2023-05-07T13:53:49;16.48;;;9.95;;
79454;SDS011;68900;52.134;5.420;2023-05-07T13:56:15;16.15;;;10.30;;
79454;SDS011;68900;52.134;5.420;2023-05-07T13:58:42;16.77;;;9.82;;
79454;SDS011;68900;52.134;5.420;2023-05-07T14:01:24;18.63;;;10.38;;
79454;SDS011;68900;52.134;5.420;2023-05-07T14:03:51;16.60;;;10.10;;
79454;SDS011;68900;52.134;5.420;2023-05-07T14:06:17;15.05;;;9.38;;
79454;SDS011;68900;52.134;5.420;2023-05-07T14:08:44;18.10;;;10.40;;
79454;SDS011;68900;52.134;5.420;2023-05-07T14:11:10;16.58;;;9.85;;
79454;SDS011;68900;52.134;5.420;2023-05-07T14:13:37;15.60;;;8.95;;
79454;SDS011;68900;52.134;5.420;2023-05-07T14:16:04;12.98;;;8.15;;
79454;SDS011;68900;52.134;5.420;2023-05-07T14:18:31;15.30;;;8.98;;
79454;SDS011;68900;52.134;5.420;2023-05-07T14:20:57;15.10;;;8.68;;
79454;SDS011;68900;52.134;5.420;2023-05-07T14:23:24;16.45;;;10.52;;
79454;SDS011;68900;52.134;5.420;2023-05-07T14:25:52;17.25;;;9.73;;
79454;SDS011;68900;52.134;5.420;2023-05-07T14:28:19;16.20;;;9.38;;
79454;SDS011;68900;52.134;5.420;2023-05-07T14:30:46;16.13;;;9.30;;
79454;SDS011;68900;52.134;5.420;2023-05-07T14:33:13;13.98;;;9.35;;
79454;SDS011;68900;52.134;5.420;2023-05-07T14:35:39;15.02;;;9.32;;
79454;SDS011;68900;52.134;5.420;2023-05-07T14:38:06;17.10;;;10.13;;
79454;SDS011;68900;52.134;5.420;2023-05-07T14:40:32;16.50;;;9.63;;
79454;SDS011;68900;52.134;5.420;2023-05-07T14:42:58;15.93;;;9.75;;
79454;SDS011;68900;52.134;5.420;2023-05-07T14:45:25;12.98;;;8.85;;
79454;SDS011;68900;52.134;5.420;2023-05-07T14:47:54;15.57;;;9.38;;
79454;SDS011;68900;52.134;5.420;2023-05-07T14:50:20;15.60;;;8.85;;
79454;SDS011;68900;52.134;5.420;2023-05-07T14:52:47;13.75;;;9.00;;
79454;SDS011;68900;52.134;5.420;2023-05-07T14:55:13;15.55;;;8.20;;
79454;SDS011;68900;52.134;5.420;2023-05-07T14:57:40;13.27;;;7.88;;
79454;SDS011;68900;52.134;5.420;2023-05-07T15:00:06;11.93;;;7.65;;
79454;SDS011;68900;52.134;5.420;2023-05-07T15:02:34;13.05;;;8.13;;
79454;SDS011;68900;52.134;5.420;2023-05-07T15:05:01;14.32;;;8.48;;
79454;SDS011;68900;52.134;5.420;2023-05-07T15:07:28;15.35;;;8.05;;
79454;SDS011;68900;52.134;5.420;2023-05-07T15:09:54;15.38;;;8.25;;
79454;SDS011;68900;52.134;5.420;2023-05-07T15:12:21;13.50;;;8.27;;
79454;SDS011;68900;52.134;5.420;2023-05-07T15:14:47;14.15;;;8.52;;